Time;durP1;ratioP1;P1;durP2;ratioP2;P2;SDS_P1;SDS_P2;PMS_P1;PMS_P2;Temp;Humidity;BMP_temperature;BMP_pressure;BME280_temperature;BME280_humidity;BME280_pressure;Samples;Min_cycle;Max_cycle;Signal;HPM_P1;HPM_P2
2022/12/27 00:02:02;;;;;;;12.18;8.80;;;;;;;0.59;100.00;99695.73;1712717;82;21051;-71
2022/12/27 00:04:29;;;;;;;10.08;8.03;;;;;;;0.57;100.00;99686.55;1670377;85;21702;-71
2022/12/27 00:06:55;;;;;;;14.25;9.50;;;;;;;0.56;100.00;99685.43;1672384;84;21070;-71
2022/12/27 00:09:22;;;;;;;13.32;8.78;;;;;;;0.60;100.00;99682.65;1689755;84;21074;-72
2022/12/27 00:11:48;;;;;;;11.00;7.90;;;;;;;0.63;100.00;99683.05;1677256;84;21110;-71
2022/12/27 00:14:15;;;;;;;11.83;7.97;;;;;;;0.66;100.00;99681.29;1678617;84;21605;-71
2022/12/27 00:16:41;;;;;;;;;;;;;;;0.69;100.00;99686.23;1672893;84;21078;-71
2022/12/27 00:19:07;;;;;;;12.47;8.45;;;;;;;0.70;100.00;99686.55;1676409;84;20310;-71
2022/12/27 00:21:35;;;;;;;;;;;;;;;0.60;100.00;99678.12;1682461;84;21074;-71
2022/12/27 00:24:01;;;;;;;13.53;9.20;;;;;;;0.60;100.00;99670.08;1682414;84;20125;-71
2022/12/27 00:26:31;;;;;;;13.62;8.83;;;;;;;0.61;100.00;99664.18;1676877;84;21150;-71
2022/12/27 00:28:57;;;;;;;13.15;8.83;;;;;;;0.65;100.00;99662.73;1640857;84;21102;-71
2022/12/27 00:31:25;;;;;;;;;;;;;;;0.69;100.00;99655.41;1711666;82;21039;-71
2022/12/27 00:33:54;;;;;;;11.08;8.35;;;;;;;0.71;100.00;99649.31;1710171;82;20165;-71
2022/12/27 00:36:24;;;;;;;13.43;9.15;;;;;;;0.63;100.00;99649.56;1722556;82;21019;-71
2022/12/27 00:38:51;;;;;;;11.48;8.10;;;;;;;0.64;100.00;99646.38;1711250;82;21624;-71
2022/12/27 00:41:19;;;;;;;14.28;9.15;;;;;;;0.68;100.00;99638.20;1707462;84;21106;-71
2022/12/27 00:47:22;;;;;;;12.68;9.10;;;;;;;0.80;100.00;99634.67;1806498;78;23580;-71
2022/12/27 00:49:48;;;;;;;14.40;10.03;;;;;;;0.71;100.00;99638.59;1740102;80;21070;-71
2022/12/27 00:52:15;;;;;;;12.28;8.20;;;;;;;0.71;100.00;99631.10;1743658;81;21640;-72
2022/12/27 00:54:41;;;;;;;12.68;8.60;;;;;;;0.77;100.00;99637.78;1722630;82;21027;-71
2022/12/27 00:57:07;;;;;;;13.05;8.93;;;;;;;0.82;100.00;99641.14;1726503;82;21109;-72
2022/12/27 00:59:34;;;;;;;11.38;8.20;;;;;;;0.84;100.00;99636.41;1733881;82;21557;-71
2022/12/27 01:02:00;;;;;;;13.28;8.68;;;;;;;0.86;100.00;99633.82;1722938;82;21038;-72
2022/12/27 01:04:27;;;;;;;;;;;;;;;0.88;100.00;99640.32;1735914;82;21074;-72
2022/12/27 01:06:53;;;;;;;14.53;9.70;;;;;;;0.86;100.00;99632.98;1727024;82;20173;-71
2022/12/27 01:09:20;;;;;;;12.35;8.70;;;;;;;0.79;100.00;99631.68;1724575;82;21086;-71
2022/12/27 01:11:47;;;;;;;12.15;8.73;;;;;;;0.84;100.00;99628.37;1748465;82;21035;-71
2022/12/27 01:14:14;;;;;;;11.25;8.93;;;;;;;0.93;100.00;99620.39;1744467;82;21050;-70
2022/12/27 01:16:40;;;;;;;12.88;9.28;;;;;;;0.93;100.00;99620.39;1737500;82;20978;-70
2022/12/27 01:19:07;;;;;;;11.93;8.60;;;;;;;0.96;100.00;99611.41;1714795;82;21750;-70
2022/12/27 01:21:34;;;;;;;12.13;8.78;;;;;;;0.97;100.00;99612.23;1732421;81;21027;-70
2022/12/27 01:24:00;;;;;;;11.85;8.78;;;;;;;0.93;100.00;99602.97;1730541;82;21692;-70
2022/12/27 01:26:27;;;;;;;12.03;8.25;;;;;;;0.91;100.00;99596.50;1730816;82;21066;-70
2022/12/27 01:28:54;;;;;;;12.28;8.55;;;;;;;0.95;100.00;99593.70;1722995;82;21596;-70
2022/12/27 01:31:24;;;;;;;11.38;8.30;;;;;;;0.98;100.00;99583.06;1722893;82;21054;-70
2022/12/27 01:33:56;;;;;;;12.05;8.05;;;;;;;1.00;100.00;99576.95;1724122;82;21031;-70
2022/12/27 01:36:24;;;;;;;11.25;8.23;;;;;;;1.02;100.00;99576.24;1723235;82;21541;-70
2022/12/27 01:38:50;;;;;;;10.00;7.35;;;;;;;1.03;100.00;99573.84;1726381;82;21070;-70
2022/12/27 01:44:50;;;;;;;13.55;8.75;;;;;;;1.02;100.00;99560.67;1734701;82;20466;-71
2022/12/27 01:47:37;;;;;;;13.62;8.48;;;;;;;1.00;100.00;99559.02;1721437;82;21039;-70
2022/12/27 01:50:27;;;;;;;11.47;7.50;;;;;;;1.04;100.00;99543.33;1714435;82;21019;-70
2022/12/27 01:53:02;;;;;;;13.43;9.70;;;;;;;1.05;100.00;99540.96;1722968;82;21479;-70
2022/12/27 01:55:40;;;;;;;11.83;8.33;;;;;;;1.03;100.00;99534.98;1725630;82;20953;-70
2022/12/27 01:58:12;;;;;;;13.08;8.40;;;;;;;1.02;100.00;99530.67;1724105;82;20988;-69
2022/12/27 02:00:40;;;;;;;12.85;8.50;;;;;;;1.02;100.00;99529.33;1711132;82;21002;-70
2022/12/27 02:03:06;;;;;;;10.45;7.67;;;;;;;1.07;100.00;99524.64;1720636;82;20980;-70
2022/12/27 02:05:32;;;;;;;10.38;6.97;;;;;;;1.10;100.00;99522.35;1725689;82;20933;-70
2022/12/27 02:08:12;;;;;;;12.88;8.05;;;;;;;1.14;100.00;99519.55;1720636;82;21011;-69
2022/12/27 02:10:39;;;;;;;10.70;7.40;;;;;;;1.17;100.00;99511.61;1726314;82;21593;-70
2022/12/27 02:13:05;;;;;;;10.28;7.53;;;;;;;1.17;100.00;99515.09;1721011;82;20956;-69
2022/12/27 02:15:32;;;;;;;10.38;7.65;;;;;;;1.14;100.00;99507.48;1715699;82;20980;-69
2022/12/27 02:17:58;;;;;;;10.05;7.45;;;;;;;1.15;100.00;99502.44;1728436;82;20988;-69
2022/12/27 02:20:25;;;;;;;10.15;7.65;;;;;;;1.17;100.00;99499.55;1731870;82;21004;-70
2022/12/27 02:26:40;;;;;;;10.68;7.42;;;;;;;1.18;100.00;99484.56;1712212;82;21039;-69
2022/12/27 02:29:27;;;;;;;10.40;7.67;;;;;;;1.20;100.00;99485.19;1702619;82;21072;-68
2022/12/27 02:32:05;;;;;;;10.88;8.15;;;;;;;1.18;100.00;99479.72;1709276;82;21537;-69
2022/12/27 02:35:23;;;;;;;10.23;7.60;;;;;;;1.11;100.00;99482.45;1717299;82;21063;-69
2022/12/27 02:37:57;;;;;;;11.50;8.55;;;;;;;1.12;100.00;99485.44;1703017;82;21055;-69
2022/12/27 02:55:10;;;;;;;9.85;7.45;;;;;;;1.14;100.00;99445.81;1726621;82;21544;-69
2022/12/27 02:57:55;;;;;;;11.00;7.58;;;;;;;1.18;100.00;99442.18;1713866;82;21827;-69
2022/12/27 03:03:27;;;;;;;11.30;8.03;;;;;;;1.24;100.00;99432.73;1688894;82;20988;-70
2022/12/27 03:16:22;;;;;;;12.60;8.97;;;;;;;1.34;100.00;99445.16;1705682;82;21027;-69
2022/12/27 03:18:56;;;;;;;12.95;7.97;;;;;;;1.37;100.00;99446.58;1724762;82;21083;-69
2022/12/27 03:27:16;;;;;;;14.75;11.60;;;;;;;1.37;100.00;99432.65;1690213;82;21031;-69
2022/12/27 03:35:16;;;;;;;12.18;8.68;;;;;;;1.51;100.00;99436.03;1696231;82;21089;-70
2022/12/27 03:38:04;;;;;;;12.28;9.55;;;;;;;1.58;100.00;99434.63;1689798;84;21589;-69
2022/12/27 03:43:35;;;;;;;12.88;9.38;;;;;;;1.61;100.00;99430.15;1647691;86;21696;-69
2022/12/27 03:46:35;;;;;;;12.63;9.50;;;;;;;1.65;100.00;99408.55;1605552;88;21124;-69
2022/12/27 03:49:21;;;;;;;12.37;9.13;;;;;;;1.71;100.00;99408.99;1626405;86;21100;-69
2022/12/27 03:52:07;;;;;;;;;;;;;;;1.70;100.00;99399.33;1650380;86;21132;-69
2022/12/27 03:54:36;;;;;;;13.53;9.65;;;;;;;1.72;100.00;99397.22;1618276;86;20160;-71
2022/12/27 03:57:13;;;;;;;12.35;8.70;;;;;;;1.72;100.00;99398.05;1634001;86;21086;-71
2022/12/27 03:59:40;;;;;;;14.30;10.20;;;;;;;1.78;100.00;99393.64;1614037;88;21160;-71
2022/12/27 04:02:07;;;;;;;13.68;9.45;;;;;;;1.84;100.00;99382.03;1595839;88;21088;-72
2022/12/27 04:04:34;;;;;;;12.68;10.28;;;;;;;1.83;100.00;99373.67;1622036;88;21157;-72
2022/12/27 04:07:00;;;;;;;14.30;10.72;;;;;;;1.78;100.00;99368.97;1652890;85;21037;-72
2022/12/27 04:36:54;;;;;;;15.45;11.80;;;;;;;2.12;100.00;99355.46;1649228;85;21024;-71
2022/12/27 04:39:21;;;;;;;15.70;12.15;;;;;;;2.14;100.00;99358.73;1610615;85;21071;-72
2022/12/27 04:55:36;;;;;;;17.35;12.88;;;;;;;2.18;100.00;99350.52;1680068;84;21011;-71
2022/12/27 04:58:03;;;;;;;;;;;;;;;2.23;100.00;99353.87;1660537;86;21028;-72
2022/12/27 05:03:21;;;;;;;17.32;13.22;;;;;;;2.24;100.00;99340.72;1642404;84;21158;-71
2022/12/27 05:05:47;;;;;;;18.67;13.48;;;;;;;2.23;100.00;99339.89;1646835;84;21609;-72
2022/12/27 05:14:00;;;;;;;19.85;14.90;;;;;;;2.37;100.00;99352.65;1646123;84;21597;-70
2022/12/27 05:16:35;;;;;;;18.67;14.15;;;;;;;2.39;100.00;99358.08;1654809;84;21083;-69
2022/12/27 05:19:01;;;;;;;18.98;14.87;;;;;;;2.45;100.00;99361.19;1660567;84;21150;-70
2022/12/27 05:21:28;;;;;;;18.45;14.63;;;;;;;2.49;100.00;99365.06;1646028;84;21589;-70
2022/12/27 05:26:40;;;;;;;20.57;14.70;;;;;;;2.48;100.00;99358.56;1689139;82;21027;-70
2022/12/27 05:29:07;;;;;;;19.40;13.65;;;;;;;2.54;100.00;99355.50;1698966;82;21050;-70
2022/12/27 05:31:33;;;;;;;21.05;14.53;;;;;;;2.59;100.00;99351.61;1696031;82;21360;-70
2022/12/27 05:34:00;;;;;;;22.60;15.32;;;;;;;2.59;100.00;99354.30;1700104;82;21087;-70
2022/12/27 05:36:26;;;;;;;19.27;13.90;;;;;;;2.59;100.00;99352.95;1694185;82;21039;-70
2022/12/27 11:42:02;;;;;;;89.87;38.92;;;;;;;5.08;100.00;99237.36;1823944;77;22926;-73
2022/12/27 11:44:35;;;;;;;62.67;32.33;;;;;;;5.15;100.00;99246.63;1781949;79;21058;-72
2022/12/27 11:47:13;;;;;;;55.83;29.95;;;;;;;5.29;100.00;99246.55;1763953;80;21062;-71
2022/12/27 11:49:55;;;;;;;43.30;26.62;;;;;;;5.43;100.00;99247.30;1772934;80;21420;-72
2022/12/27 11:52:36;;;;;;;40.73;24.50;;;;;;;5.57;100.00;99229.37;1729914;80;21077;-72
2022/12/27 11:55:21;;;;;;;35.20;22.77;;;;;;;5.70;100.00;99226.30;1721357;82;21073;-72
2022/12/27 11:58:16;;;;;;;36.13;22.75;;;;;;;5.85;100.00;99231.33;1728933;82;20994;-71
2022/12/27 12:01:08;;;;;;;36.75;22.35;;;;;;;5.94;100.00;99228.51;1724787;82;21073;-73
2022/12/27 12:04:03;;;;;;;41.35;24.50;;;;;;;6.07;100.00;99233.21;1727391;82;21569;-72
2022/12/27 12:06:55;;;;;;;38.10;24.12;;;;;;;6.10;100.00;99236.75;1722237;82;21698;-73
2022/12/27 12:10:03;;;;;;;39.25;23.85;;;;;;;6.15;100.00;99238.17;1726361;82;21117;-73
2022/12/27 12:13:06;;;;;;;40.70;24.80;;;;;;;6.20;100.00;99243.64;1720084;82;21050;-72
2022/12/27 12:15:58;;;;;;;36.68;23.07;;;;;;;6.25;100.00;99252.59;1724825;82;21139;-74
2022/12/27 12:18:39;;;;;;;33.35;21.62;;;;;;;6.20;100.00;99241.72;1726270;82;21053;-73
2022/12/27 12:21:25;;;;;;;36.77;22.58;;;;;;;6.27;100.00;99247.73;1727273;82;21086;-73
2022/12/27 12:24:29;;;;;;;34.73;22.30;;;;;;;6.27;100.00;99242.33;1727744;82;21070;-71
2022/12/27 12:27:27;;;;;;;35.88;22.07;;;;;;;6.27;100.00;99234.79;1706521;82;21069;-77
2022/12/27 12:30:16;;;;;;;34.40;22.13;;;;;;;6.33;100.00;99229.70;1727796;82;21043;-72
2022/12/27 12:33:15;;;;;;;33.33;22.02;;;;;;;6.37;100.00;99242.98;1737095;82;21026;-72
2022/12/27 12:36:21;;;;;;;36.65;23.85;;;;;;;6.36;100.00;99251.63;1725862;82;21145;-69
2022/12/27 12:39:05;;;;;;;37.05;22.95;;;;;;;6.32;100.00;99247.80;1713983;82;21643;-70
2022/12/27 12:42:09;;;;;;;33.98;21.62;;;;;;;6.26;100.00;99254.23;1700234;82;21123;-69
2022/12/27 12:44:56;;;;;;;33.92;20.45;;;;;;;6.30;100.00;99250.49;1620574;84;21099;-69
2022/12/27 12:47:49;;;;;;;33.45;21.33;;;;;;;6.25;100.00;99250.42;1704915;83;21397;-70
2022/12/27 12:50:42;;;;;;;30.77;19.98;;;;;;;6.20;100.00;99247.13;1719618;82;21162;-71
2022/12/27 12:53:42;;;;;;;29.87;19.73;;;;;;;6.20;100.00;99246.34;1716866;82;21549;-70
2022/12/27 12:56:45;;;;;;;30.50;18.02;;;;;;;6.21;100.00;99242.02;1696153;83;21129;-69
2022/12/27 12:59:28;;;;;;;25.02;16.85;;;;;;;6.20;100.00;99243.08;1693897;83;22256;-70
2022/12/27 13:02:31;;;;;;;29.37;17.80;;;;;;;6.19;100.00;99253.63;1666505;85;21110;-72
2022/12/27 13:05:10;;;;;;;24.82;16.10;;;;;;;6.16;100.00;99248.73;1621749;83;21162;-71
2022/12/27 13:08:03;;;;;;;23.85;15.45;;;;;;;6.14;100.00;99252.74;1653904;83;21094;-72
2022/12/27 13:11:05;;;;;;;24.23;14.83;;;;;;;6.19;100.00;99251.45;1713074;83;21075;-69
2022/12/27 13:13:56;;;;;;;22.22;14.75;;;;;;;6.19;100.00;99256.86;1706053;83;21063;-69
2022/12/27 13:16:34;;;;;;;21.95;14.87;;;;;;;6.07;100.00;99250.25;1748123;81;21193;-74
2022/12/27 13:19:39;;;;;;;20.57;14.60;;;;;;;6.11;100.00;99259.48;1751342;81;22198;-76
2022/12/27 13:22:41;;;;;;;22.00;14.28;;;;;;;6.07;100.00;99266.98;1714204;82;21059;-76
2022/12/27 13:25:40;;;;;;;20.95;14.10;;;;;;;6.05;100.00;99264.56;1722129;82;21067;-75
2022/12/27 13:28:23;;;;;;;21.52;14.93;;;;;;;6.06;100.00;99258.06;1767725;80;21498;-76
2022/12/27 13:31:24;;;;;;;20.40;14.68;;;;;;;6.07;100.00;99259.70;1762680;81;21098;-76
2022/12/27 13:34:34;;;;;;;24.72;16.23;;;;;;;6.04;100.00;99255.34;1743461;81;21161;-73
2022/12/27 13:37:29;;;;;;;21.62;14.35;;;;;;;6.02;100.00;99261.02;1754726;81;21067;-75
2022/12/27 13:40:23;;;;;;;21.05;14.28;;;;;;;6.03;100.00;99270.73;1759710;81;21083;-76
2022/12/27 13:43:15;;;;;;;22.22;15.00;;;;;;;6.03;100.00;99268.03;1718548;82;21558;-75
2022/12/27 13:46:17;;;;;;;20.75;13.83;;;;;;;6.02;100.00;99267.77;1709798;83;21166;-75
2022/12/27 13:49:04;;;;;;;19.15;13.93;;;;;;;6.05;100.00;99270.49;1763319;80;21109;-73
2022/12/27 13:51:47;;;;;;;19.37;14.20;;;;;;;6.01;100.00;99268.83;1758960;80;21079;-76
2022/12/27 13:54:57;;;;;;;18.80;13.40;;;;;;;5.98;100.00;99262.06;1756489;80;21137;-75
2022/12/27 13:57:38;;;;;;;21.37;14.43;;;;;;;5.96;100.00;99269.58;1755219;80;21042;-75
2022/12/27 14:00:18;;;;;;;19.73;13.45;;;;;;;5.94;100.00;99273.08;1769983;80;21537;-75
2022/12/27 14:03:06;;;;;;;19.75;14.13;;;;;;;5.92;100.00;99276.55;1781704;80;20991;-75
2022/12/27 14:06:12;;;;;;;19.60;14.28;;;;;;;5.91;100.00;99271.42;1773276;80;21086;-75
2022/12/27 14:09:11;;;;;;;21.57;14.78;;;;;;;5.89;100.00;99269.48;1778089;80;21652;-75
2022/12/27 14:12:30;;;;;;;21.48;14.85;;;;;;;5.91;100.00;99275.47;1770425;80;21802;-75
2022/12/27 14:14:59;;;;;;;21.48;14.28;;;;;;;5.94;100.00;99266.86;1773714;80;21157;-75
2022/12/27 14:17:53;;;;;;;19.73;13.68;;;;;;;5.90;100.00;99279.23;1741285;80;21071;-76
2022/12/27 14:20:54;;;;;;;18.67;12.65;;;;;;;5.88;100.00;99281.39;1750759;80;21122;-76
2022/12/27 14:23:26;;;;;;;18.48;12.53;;;;;;;5.91;100.00;99276.83;1756340;80;20977;-76
2022/12/27 14:26:18;;;;;;;17.07;11.83;;;;;;;5.92;100.00;99282.48;1756984;80;21066;-76
2022/12/27 14:29:19;;;;;;;17.65;10.20;;;;;;;5.94;100.00;99285.24;1761412;80;21136;-76
2022/12/27 14:31:56;;;;;;;12.07;9.03;;;;;;;5.97;100.00;99286.08;1749864;80;21085;-76
2022/12/27 14:35:05;;;;;;;12.63;8.85;;;;;;;5.98;100.00;99297.71;1728011;82;21165;-75
2022/12/27 14:37:58;;;;;;;11.55;8.00;;;;;;;5.99;100.00;99308.25;1784097;80;21575;-75
2022/12/27 14:40:53;;;;;;;10.78;7.83;;;;;;;5.97;100.00;99312.28;1753412;80;21728;-76
2022/12/27 14:43:55;;;;;;;10.60;7.42;;;;;;;5.92;100.00;99301.40;1755516;80;21010;-76
2022/12/27 14:46:51;;;;;;;7.53;5.58;;;;;;;5.91;100.00;99311.41;1769296;80;21094;-76
2022/12/27 14:49:46;;;;;;;9.18;6.00;;;;;;;5.91;100.00;99312.77;1753940;80;21138;-76
2022/12/27 14:53:08;;;;;;;6.75;4.37;;;;;;;5.90;100.00;99327.33;1759460;80;21046;-75
2022/12/27 14:56:21;;;;;;;5.35;3.77;;;;;;;5.90;100.00;99322.45;1692376;83;21074;-75
2022/12/27 14:59:15;;;;;;;3.05;2.05;;;;;;;5.82;100.00;99322.33;1767469;80;21070;-76
2022/12/27 15:02:00;;;;;;;4.12;2.10;;;;;;;5.79;100.00;99332.81;1728468;82;21077;-76
2022/12/27 15:04:47;;;;;;;3.10;1.65;;;;;;;5.75;100.00;99338.42;1780781;80;21078;-75
2022/12/27 15:08:02;;;;;;;2.62;1.67;;;;;;;5.69;100.00;99338.91;1780235;80;21596;-75
2022/12/27 15:11:05;;;;;;;2.62;1.47;;;;;;;5.64;100.00;99346.11;1763730;80;21123;-76
2022/12/27 15:13:46;;;;;;;2.45;1.22;;;;;;;5.50;100.00;99342.42;1748175;80;21566;-76
2022/12/27 15:16:18;;;;;;;2.27;1.40;;;;;;;5.46;100.00;99342.62;1749469;80;21038;-76
2022/12/27 15:19:19;;;;;;;2.08;1.15;;;;;;;5.41;100.00;99345.27;1777433;80;21437;-75
2022/12/27 15:22:03;;;;;;;2.45;1.15;;;;;;;5.34;100.00;99358.12;1751967;81;21064;-76
2022/12/27 15:25:07;;;;;;;1.87;1.02;;;;;;;5.29;100.00;99360.73;1754794;80;21033;-76
2022/12/27 15:27:54;;;;;;;2.45;1.20;;;;;;;5.24;100.00;99373.34;1763244;80;21066;-77
2022/12/27 15:30:38;;;;;;;1.90;1.00;;;;;;;5.14;100.00;99384.77;1776243;80;21103;-77
2022/12/27 15:33:22;;;;;;;1.82;0.80;;;;;;;5.12;100.00;99392.30;1770848;81;21039;-76
2022/12/27 15:36:16;;;;;;;2.08;1.15;;;;;;;5.09;100.00;99401.41;1776657;80;21050;-76
2022/12/27 15:38:55;;;;;;;5.28;1.82;;;;;;;5.01;100.00;99410.72;1716340;82;21071;-76
2022/12/27 15:41:43;;;;;;;2.55;1.20;;;;;;;4.91;100.00;99409.20;1750253;80;21075;-75
2022/12/27 15:44:49;;;;;;;2.90;1.10;;;;;;;4.76;100.00;99414.30;1759174;81;21592;-77
2022/12/27 15:47:21;;;;;;;2.22;0.93;;;;;;;4.53;100.00;99424.67;1744810;81;21640;-76
2022/12/27 15:50:28;;;;;;;8.55;3.90;;;;;;;4.45;100.00;99429.09;1745382;81;21063;-76
2022/12/27 15:53:02;;;;;;;3.10;1.50;;;;;;;4.39;100.00;99429.50;1739445;81;21034;-75
2022/12/27 15:55:49;;;;;;;1.85;0.80;;;;;;;4.30;100.00;99443.07;1751178;81;21732;-77
2022/12/27 15:58:19;;;;;;;7.63;3.37;;;;;;;4.24;100.00;99437.30;1700120;83;21914;-74
2022/12/27 16:01:18;;;;;;;8.75;4.55;;;;;;;4.21;100.00;99431.04;1717507;81;22006;-75
2022/12/27 16:03:46;;;;;;;6.12;2.70;;;;;;;4.18;100.00;99433.39;1763705;81;22146;-73
2022/12/27 16:06:44;;;;;;;7.65;3.90;;;;;;;4.13;100.00;99444.87;1719535;83;21046;-75
2022/12/27 16:09:21;;;;;;;11.10;5.70;;;;;;;4.10;100.00;99446.70;1751343;81;21079;-73
2022/12/27 16:12:08;;;;;;;;;;;;;;;4.00;100.00;99448.62;1744505;81;21522;-74
2022/12/27 16:14:38;;;;;;;5.80;3.40;;;;;;;3.97;100.00;99450.44;1733732;81;20104;-72
2022/12/27 16:17:34;;;;;;;3.65;1.10;;;;;;;3.90;100.00;99451.09;1751528;81;21574;-76
2022/12/27 16:20:17;;;;;;;2.75;1.07;;;;;;;3.85;100.00;99460.94;1746007;81;21551;-73
2022/12/27 16:22:52;;;;;;;2.90;0.88;;;;;;;3.78;100.00;99474.53;1751333;81;21288;-74
2022/12/27 16:25:33;;;;;;;2.35;1.22;;;;;;;3.76;100.00;99475.27;1750802;81;21074;-74
2022/12/27 16:28:22;;;;;;;2.62;1.37;;;;;;;3.74;100.00;99477.39;1749658;81;21368;-74
2022/12/27 16:30:50;;;;;;;13.03;5.58;;;;;;;3.66;100.00;99487.67;1758904;81;21122;-73
2022/12/27 16:33:30;;;;;;;4.53;2.08;;;;;;;3.60;100.00;99502.89;1741798;81;20964;-73
2022/12/27 16:36:17;;;;;;;2.70;1.40;;;;;;;3.61;100.00;99511.27;1703477;83;21122;-73
2022/12/27 16:39:13;;;;;;;2.92;1.32;;;;;;;3.61;100.00;99519.87;1715328;83;21095;-73
2022/12/27 16:41:45;;;;;;;2.15;1.02;;;;;;;3.58;100.00;99532.45;1757508;80;21640;-74
2022/12/27 16:44:16;;;;;;;3.67;1.57;;;;;;;3.47;100.00;99530.82;1745292;80;21146;-71
2022/12/27 16:46:57;;;;;;;2.45;1.00;;;;;;;3.45;100.00;99532.94;1749386;80;21082;-74
2022/12/27 16:49:56;;;;;;;2.98;1.20;;;;;;;3.46;100.00;99537.80;1749553;80;21106;-75
2022/12/27 16:53:09;;;;;;;3.87;1.27;;;;;;;3.44;100.00;99544.74;1745690;80;21058;-74
2022/12/27 16:56:14;;;;;;;7.75;2.37;;;;;;;3.39;100.00;99542.45;1752826;80;21383;-74
2022/12/27 16:58:41;;;;;;;3.17;1.37;;;;;;;3.32;100.00;99549.28;1761799;80;21082;-73
2022/12/27 17:01:35;;;;;;;5.30;2.10;;;;;;;3.31;100.00;99553.02;1753903;80;21056;-73
2022/12/27 17:04:03;;;;;;;3.42;1.27;;;;;;;3.23;100.00;99549.30;1765680;80;21007;-74
2022/12/27 17:06:38;;;;;;;3.65;1.12;;;;;;;3.19;100.00;99558.08;1774930;80;21935;-73
2022/12/27 17:09:13;;;;;;;4.20;1.40;;;;;;;3.19;100.00;99564.25;1777565;80;21052;-73
2022/12/27 17:11:55;;;;;;;4.25;1.80;;;;;;;3.20;100.00;99561.04;1767038;80;22199;-77
2022/12/27 17:14:26;;;;;;;17.20;10.38;;;;;;;3.16;100.00;99563.89;1773039;80;21063;-74
2022/12/27 17:16:56;;;;;;;5.20;2.22;;;;;;;3.07;100.00;99566.09;1770545;80;21054;-73
2022/12/27 17:19:41;;;;;;;5.30;2.00;;;;;;;3.04;100.00;99575.13;1765095;80;21557;-72
2022/12/27 17:22:12;;;;;;;6.00;2.00;;;;;;;3.07;100.00;99569.30;1762318;80;22121;-77
2022/12/27 17:24:39;;;;;;;5.22;1.40;;;;;;;3.00;100.00;99570.73;1755520;80;21121;-75
2022/12/27 17:27:16;;;;;;;4.03;1.10;;;;;;;3.01;100.00;99584.48;1761766;80;21034;-76
2022/12/27 17:30:04;;;;;;;7.25;1.42;;;;;;;3.00;100.00;99580.14;1761343;80;21968;-75
2022/12/27 17:32:57;;;;;;;4.85;1.10;;;;;;;2.95;100.00;99590.74;1709617;84;21078;-75
2022/12/27 17:36:02;;;;;;;5.62;1.90;;;;;;;2.96;100.00;99585.67;1687704;82;21094;-76
2022/12/27 17:38:49;;;;;;;5.33;1.37;;;;;;;2.99;100.00;99593.28;1703855;83;21649;-75
2022/12/27 17:45:03;;;;;;;3.60;1.12;;;;;;;2.89;100.00;99596.52;1702848;83;21940;-74
2022/12/27 17:47:51;;;;;;;5.05;1.37;;;;;;;2.87;100.00;99601.28;1695618;83;21110;-73
2022/12/27 17:50:22;;;;;;;6.08;1.55;;;;;;;2.82;100.00;99607.05;1706341;83;21051;-76
2022/12/27 17:59:07;;;;;;;6.37;1.57;;;;;;;2.57;100.00;99613.83;1708774;82;21047;-72
2022/12/27 18:01:39;;;;;;;6.72;1.67;;;;;;;2.52;100.00;99617.70;1715599;82;21058;-76
2022/12/27 18:04:05;;;;;;;5.28;1.30;;;;;;;2.47;100.00;99621.59;1715355;82;21074;-76
2022/12/27 18:06:34;;;;;;;7.10;2.02;;;;;;;2.41;100.00;99621.94;1715938;82;21561;-76
2022/12/27 18:09:01;;;;;;;9.33;2.75;;;;;;;2.41;100.00;99625.97;1677180;84;21106;-75
2022/12/27 18:11:30;;;;;;;19.45;10.93;;;;;;;2.39;100.00;99630.75;1709439;83;21042;-75
2022/12/27 20:25:34;;;;;;;8.63;2.20;;;;;;;1.28;100.00;99737.50;1795585;78;22740;-72
2022/12/27 20:28:00;;;;;;;9.63;2.27;;;;;;;1.34;100.00;99744.20;1747821;81;21055;-71
2022/12/27 20:30:29;;;;;;;9.78;2.30;;;;;;;1.55;100.00;99750.30;1746072;82;22182;-72
2022/12/27 20:32:57;;;;;;;10.00;2.08;;;;;;;1.70;100.00;99751.66;1730921;82;21588;-72
2022/12/27 20:35:24;;;;;;;9.20;2.17;;;;;;;1.84;100.00;99753.78;1726747;82;21483;-72
2022/12/27 20:37:52;;;;;;;7.42;2.15;;;;;;;1.94;100.00;99760.33;1722067;82;21078;-71
2022/12/27 20:40:18;;;;;;;8.90;2.00;;;;;;;2.03;100.00;99748.80;1736139;82;21536;-71
2022/12/27 20:42:45;;;;;;;;;;;;;;;2.10;100.00;99753.61;1746361;82;21082;-71
2022/12/27 20:45:12;;;;;;;8.25;2.20;;;;;;;2.11;100.00;99758.47;1736093;81;20138;-71
2022/12/27 20:47:39;;;;;;;8.93;1.65;;;;;;;2.10;100.00;99752.78;1740491;82;21027;-72
2022/12/27 20:50:07;;;;;;;7.72;1.90;;;;;;;2.16;100.00;99758.10;1731481;82;21540;-72
2022/12/27 20:52:37;;;;;;;4.78;1.40;;;;;;;2.21;100.00;99762.83;1733935;82;21090;-72
2022/12/27 20:55:06;;;;;;;9.00;2.00;;;;;;;2.20;100.00;99764.69;1749687;81;21047;-72
2022/12/27 20:57:33;;;;;;;8.73;2.15;;;;;;;2.20;100.00;99766.55;1750356;82;21691;-72
2022/12/27 21:00:01;;;;;;;8.08;2.17;;;;;;;2.24;100.00;99769.11;1731064;82;21077;-72
2022/12/27 21:02:27;;;;;;;6.95;1.85;;;;;;;2.25;100.00;99785.53;1727875;82;21596;-72
2022/12/27 21:04:54;;;;;;;8.95;2.35;;;;;;;2.27;100.00;99790.98;1729808;82;21597;-73
2022/12/27 21:07:20;;;;;;;7.15;1.98;;;;;;;2.24;100.00;99783.37;1727209;82;21402;-71
2022/12/27 21:09:47;;;;;;;5.78;1.90;;;;;;;2.21;100.00;99789.17;1741337;82;21039;-72
2022/12/27 21:12:13;;;;;;;6.87;1.87;;;;;;;2.25;100.00;99790.39;1735520;82;21007;-73
2022/12/27 21:14:39;;;;;;;9.30;2.00;;;;;;;2.28;100.00;99798.02;1739716;82;21039;-73
2022/12/27 21:17:06;;;;;;;6.53;1.80;;;;;;;2.29;100.00;99797.50;1739179;82;20963;-73
2022/12/27 21:19:33;;;;;;;6.95;2.00;;;;;;;2.25;100.00;99794.94;1738070;80;21083;-72
2022/12/27 21:22:00;;;;;;;6.92;2.05;;;;;;;2.25;100.00;99798.45;1735515;82;21466;-70
2022/12/27 21:24:26;;;;;;;4.47;1.85;;;;;;;2.27;100.00;99798.22;1743242;81;21102;-71
2022/12/27 21:26:53;;;;;;;;;;;;;;;2.27;100.00;99807.11;1740657;82;20972;-71
2022/12/27 21:29:19;;;;;;;6.97;2.05;;;;;;;2.24;100.00;99797.31;1738981;82;20104;-71
2022/12/27 21:31:46;;;;;;;7.20;2.40;;;;;;;2.16;100.00;99809.67;1739125;82;21000;-71
2022/12/27 21:34:14;;;;;;;6.70;2.33;;;;;;;2.20;100.00;99816.23;1730248;82;21522;-71
2022/12/27 21:36:40;;;;;;;6.80;1.98;;;;;;;2.22;100.00;99812.31;1738599;82;21011;-71
2022/12/27 21:39:07;;;;;;;7.05;2.30;;;;;;;2.24;100.00;99817.45;1738492;82;21099;-72
2022/12/27 21:41:36;;;;;;;8.55;2.00;;;;;;;2.19;100.00;99814.09;1725465;82;21487;-72
2022/12/27 21:44:02;;;;;;;6.78;1.90;;;;;;;2.23;100.00;99817.17;1722902;82;21067;-72
2022/12/27 21:46:34;;;;;;;;;;;;;;;2.27;100.00;99815.16;1740349;82;21007;-71
2022/12/27 21:49:04;;;;;;;6.53;2.00;;;;;;;2.29;100.00;99807.73;1712028;82;20125;-72
2022/12/27 21:51:33;;;;;;;7.65;2.25;;;;;;;2.18;100.00;99819.16;1721359;82;21625;-72
2022/12/27 21:54:00;;;;;;;7.62;2.27;;;;;;;2.16;100.00;99811.81;1733467;82;21068;-72
2022/12/27 21:56:27;;;;;;;;;;;;;;;2.20;100.00;99817.06;1733310;82;20980;-73
2022/12/27 21:58:54;;;;;;;10.30;2.10;;;;;;;2.22;100.00;99820.89;1713790;81;20173;-72
2022/12/27 22:01:29;;;;;;;6.35;2.05;;;;;;;2.12;100.00;99817.86;1713387;82;21007;-73
2022/12/27 22:03:56;;;;;;;6.50;2.20;;;;;;;2.14;100.00;99819.28;1721025;82;21067;-72
2022/12/27 22:06:27;;;;;;;7.95;2.15;;;;;;;2.17;100.00;99825.56;1719741;82;20948;-72
2022/12/27 22:09:07;;;;;;;5.95;2.02;;;;;;;2.18;100.00;99831.76;1711462;82;21913;-72
2022/12/27 22:11:33;;;;;;;8.40;2.50;;;;;;;2.11;100.00;99837.17;1726458;82;20963;-72
2022/12/27 22:14:00;;;;;;;7.10;2.15;;;;;;;2.07;100.00;99831.09;1718180;82;21625;-72
2022/12/27 22:16:33;;;;;;;9.15;2.50;;;;;;;2.09;100.00;99834.41;1730725;82;20992;-73
2022/12/27 22:19:00;;;;;;;6.75;2.40;;;;;;;2.12;100.00;99839.34;1732414;82;21020;-72
2022/12/27 22:21:28;;;;;;;7.90;1.95;;;;;;;2.13;100.00;99838.28;1727370;82;21518;-72
2022/12/27 22:23:58;;;;;;;7.12;2.25;;;;;;;2.10;100.00;99842.22;1735573;81;21019;-72
2022/12/27 22:26:27;;;;;;;9.93;2.42;;;;;;;2.05;100.00;99843.41;1748077;82;21494;-72
2022/12/27 22:28:54;;;;;;;8.93;2.12;;;;;;;2.03;100.00;99845.98;1750714;82;21193;-72
2022/12/27 22:31:26;;;;;;;9.33;2.22;;;;;;;2.06;100.00;99849.57;1696461;82;21002;-72
2022/12/27 22:33:53;;;;;;;7.15;2.10;;;;;;;2.06;100.00;99842.34;1729909;82;21052;-72